createdAt,value
2019-02-06T00:00:26.546Z,23.03
2019-02-06T00:02:51.507Z,22.97
2019-02-06T00:05:20.398Z,21.57
2019-02-06T00:07:48.966Z,21.53
2019-02-06T00:10:17.624Z,22.40
2019-02-06T00:12:46.265Z,22.33
2019-02-06T00:15:15.181Z,23.03
2019-02-06T00:17:44.269Z,22.20
2019-02-06T00:20:12.922Z,23.27
2019-02-06T00:22:41.482Z,22.83
2019-02-06T00:25:10.304Z,22.77
2019-02-06T00:27:38.863Z,21.57
2019-02-06T00:30:10.695Z,22.60
2019-02-06T00:32:39.336Z,22.20
2019-02-06T00:35:08.167Z,22.60
2019-02-06T00:37:36.735Z,22.03
2019-02-06T00:40:10.147Z,22.17
2019-02-06T00:42:38.781Z,22.10
2019-02-06T00:45:10.211Z,22.50
2019-02-06T00:47:38.775Z,22.50
2019-02-06T00:50:16.171Z,23.23
2019-02-06T00:52:44.875Z,22.33
2019-02-06T00:55:14.935Z,22.90
2019-02-06T00:57:43.575Z,23.13
2019-02-06T01:00:16.887Z,22.33
2019-02-06T01:02:45.585Z,22.77
2019-02-06T01:05:16.827Z,22.00
2019-02-06T01:07:46.227Z,22.60
2019-02-06T01:10:17.935Z,23.10
2019-02-06T01:12:46.783Z,22.83
2019-02-06T01:15:15.452Z,21.83
2019-02-06T01:17:44.451Z,23.07
2019-02-06T01:20:17.950Z,23.60
2019-02-06T01:22:47.033Z,23.30
2019-02-06T01:25:18.504Z,22.87
2019-02-06T01:27:47.067Z,21.33
2019-02-06T01:30:20.070Z,22.93
2019-02-06T01:32:48.815Z,22.23
2019-02-06T01:35:17.870Z,22.43
2019-02-06T01:37:46.609Z,24.00
2019-02-06T01:40:20.514Z,23.43
2019-02-06T01:42:49.317Z,23.67
2019-02-06T01:45:19.739Z,23.00
2019-02-06T01:47:48.370Z,22.87
2019-02-06T01:50:19.038Z,22.53
2019-02-06T01:52:47.767Z,23.93
2019-02-06T01:55:16.799Z,22.47
2019-02-06T01:57:45.435Z,24.30
2019-02-06T02:00:22.405Z,23.43
2019-02-06T02:02:51.056Z,24.10
2019-02-06T02:05:21.259Z,24.07
2019-02-06T02:07:50.971Z,23.67
2019-02-06T02:10:20.769Z,22.90
2019-02-06T02:12:49.609Z,24.23
2019-02-06T02:15:19.312Z,23.87
2019-02-06T02:17:48.141Z,23.63
2019-02-06T02:20:24.215Z,24.20
2019-02-06T02:22:53.447Z,22.40
2019-02-06T02:25:22.307Z,22.80
2019-02-06T02:27:51.067Z,23.43
2019-02-06T02:30:24.023Z,23.13
2019-02-06T02:32:52.910Z,23.53
2019-02-06T02:35:21.475Z,22.53
2019-02-06T02:37:50.134Z,24.00
2019-02-06T02:40:18.831Z,22.93
2019-02-06T02:42:47.448Z,23.43
2019-02-06T02:45:17.917Z,24.00
2019-02-06T02:47:47.755Z,22.30
2019-02-06T02:50:16.392Z,22.97
2019-02-06T02:52:44.979Z,22.03
2019-02-06T02:55:14.517Z,21.97
2019-02-06T02:57:43.255Z,22.87
2019-02-06T03:00:21.616Z,23.00
2019-02-06T03:02:57.302Z,22.43
2019-02-06T03:05:27.139Z,22.27
2019-02-06T03:07:55.741Z,23.03
2019-02-06T03:10:24.376Z,22.83
2019-02-06T03:12:52.971Z,23.87
2019-02-06T03:15:22.001Z,23.67
2019-02-06T03:17:50.663Z,22.43
2019-02-06T03:20:19.310Z,23.67
2019-02-06T03:22:47.894Z,23.40
2019-02-06T03:25:16.730Z,23.90
2019-02-06T03:27:45.328Z,23.20
2019-02-06T03:30:18.784Z,23.03
2019-02-06T03:32:47.445Z,23.20
2019-02-06T03:35:18.054Z,24.03
2019-02-06T03:37:46.688Z,22.93
2019-02-06T03:40:19.047Z,23.30
2019-02-06T03:42:47.915Z,22.57
2019-02-06T03:45:16.777Z,22.87
2019-02-06T03:47:45.395Z,23.70
2019-02-06T03:50:17.028Z,22.37
2019-02-06T03:52:45.727Z,23.10
2019-02-06T03:55:14.863Z,23.53
2019-02-06T03:57:43.567Z,23.07
2019-02-06T04:00:17.355Z,23.53
2019-02-06T04:02:45.914Z,23.07
2019-02-06T04:05:14.839Z,23.53
2019-02-06T04:07:43.543Z,23.40
2019-02-06T04:10:20.087Z,23.80
2019-02-06T04:12:48.727Z,23.17
2019-02-06T04:15:17.745Z,22.90
2019-02-06T04:17:46.333Z,23.17
2019-02-06T04:20:18.441Z,23.37
2019-02-06T04:22:46.995Z,22.43
2019-02-06T04:25:16.055Z,23.17
2019-02-06T04:27:44.782Z,23.03
2019-02-06T04:30:18.311Z,23.33
2019-02-06T04:32:46.877Z,22.10
2019-02-06T04:35:16.221Z,22.90
2019-02-06T04:37:44.856Z,22.57
2019-02-06T04:40:16.432Z,21.57
2019-02-06T04:42:45.061Z,22.30
2019-02-06T04:45:16.305Z,22.70
2019-02-06T04:47:45.697Z,22.60
2019-02-06T04:50:15.632Z,22.80
2019-02-06T04:52:44.264Z,22.90
2019-02-06T04:55:17.378Z,22.93
2019-02-06T04:57:46.483Z,22.57
2019-02-06T05:00:18.388Z,21.93
2019-02-06T05:02:47.016Z,21.50
2019-02-06T05:05:15.947Z,21.40
2019-02-06T05:07:44.505Z,21.73
2019-02-06T05:10:14.448Z,20.37
2019-02-06T05:12:43.655Z,22.73
2019-02-06T05:15:14.392Z,21.27
2019-02-06T05:17:45.775Z,20.27
2019-02-06T05:20:26.466Z,19.93
2019-02-06T05:22:55.087Z,20.60
2019-02-06T05:25:24.086Z,19.53
2019-02-06T05:27:52.652Z,19.20
2019-02-06T05:30:21.351Z,19.40
2019-02-06T05:32:50.065Z,21.13
2019-02-06T05:35:18.669Z,18.77
2019-02-06T05:37:47.215Z,18.80
2019-02-06T05:40:15.950Z,20.10
2019-02-06T05:42:44.911Z,20.00
2019-02-06T05:45:14.240Z,19.77
2019-02-06T05:47:42.814Z,19.27
2019-02-06T05:50:17.188Z,19.83
2019-02-06T05:52:45.911Z,19.13
2019-02-06T05:55:17.057Z,19.73
2019-02-06T05:57:46.259Z,18.97
2019-02-06T06:00:25.580Z,19.17
2019-02-06T06:02:54.215Z,18.93
2019-02-06T06:05:22.911Z,18.97
2019-02-06T06:07:51.680Z,18.97
2019-02-06T06:10:20.322Z,19.10
2019-02-06T06:12:48.915Z,19.50
2019-02-06T06:15:41.301Z,19.37
2019-02-06T06:18:10.050Z,18.43
2019-02-06T06:20:38.622Z,18.00
2019-02-06T06:23:07.851Z,18.33
2019-02-06T06:25:36.457Z,18.57
2019-02-06T06:28:05.057Z,18.47
2019-02-06T06:30:33.831Z,18.00
2019-02-06T06:33:02.437Z,17.50
2019-02-06T06:35:30.999Z,16.87
2019-02-06T06:38:02.638Z,18.20
2019-02-06T06:40:29.872Z,18.47
2019-02-06T06:42:58.466Z,18.00
2019-02-06T06:45:27.196Z,17.20
2019-02-06T06:47:55.858Z,16.57
2019-02-06T06:50:25.759Z,17.30
2019-02-06T06:52:54.441Z,14.73
2019-02-06T06:55:23.469Z,15.10
2019-02-06T06:57:52.135Z,15.57
2019-02-06T07:00:26.492Z,15.77
2019-02-06T07:02:55.232Z,15.47
2019-02-06T07:05:23.872Z,15.97
2019-02-06T07:07:53.909Z,15.67
2019-02-06T07:10:22.868Z,16.13
2019-02-06T07:12:51.908Z,16.50
2019-02-06T07:15:22.910Z,16.33
2019-02-06T07:17:51.659Z,15.37
2019-02-06T07:20:20.667Z,15.70
2019-02-06T07:22:49.481Z,15.83
2019-02-06T07:25:19.738Z,15.50
2019-02-06T07:27:48.412Z,15.47
2019-02-06T07:30:28.439Z,15.13
2019-02-06T07:32:57.584Z,14.90
2019-02-06T07:35:26.211Z,15.23
2019-02-06T07:37:54.807Z,15.93
2019-02-06T07:40:23.440Z,14.50
2019-02-06T07:42:52.099Z,15.00
2019-02-06T07:45:21.203Z,15.20
2019-02-06T07:47:50.279Z,17.03
2019-02-06T07:50:26.828Z,15.17
2019-02-06T07:52:55.855Z,14.37
2019-02-06T07:55:24.575Z,14.70
2019-02-06T07:57:53.151Z,15.27
2019-02-06T08:00:21.811Z,14.57
2019-02-06T08:02:50.443Z,16.40
2019-02-06T08:05:22.797Z,14.73
2019-02-06T08:07:51.799Z,15.27
2019-02-06T08:10:34.699Z,15.50
2019-02-06T08:13:04.219Z,15.03
2019-02-06T08:15:32.877Z,15.27
2019-02-06T08:18:01.585Z,15.77
2019-02-06T08:20:30.426Z,15.30
2019-02-06T08:22:59.051Z,16.40
2019-02-06T08:25:27.727Z,15.97
2019-02-06T08:27:56.373Z,15.47
2019-02-06T08:30:33.255Z,16.63
2019-02-06T08:33:01.978Z,16.67
2019-02-06T08:35:31.111Z,16.33
2019-02-06T08:38:00.024Z,17.10
2019-02-06T08:40:30.457Z,17.07
2019-02-06T08:42:59.567Z,16.83
2019-02-06T08:45:28.239Z,17.30
2019-02-06T08:47:56.976Z,17.60
2019-02-06T08:50:26.227Z,17.67
2019-02-06T08:52:54.964Z,18.47
2019-02-06T08:55:26.363Z,18.43
2019-02-06T08:57:55.264Z,18.97
2019-02-06T09:00:32.122Z,17.80
2019-02-06T09:03:01.035Z,19.60
2019-02-06T09:05:30.298Z,18.87
2019-02-06T09:07:58.935Z,18.37
2019-02-06T09:10:29.206Z,18.97
2019-02-06T09:12:58.642Z,18.73
2019-02-06T09:15:27.760Z,18.30
2019-02-06T09:17:57.055Z,19.13
2019-02-06T09:20:27.291Z,18.27
2019-02-06T09:22:56.487Z,19.97
2019-02-06T09:25:26.729Z,18.67
2019-02-06T09:27:55.716Z,19.07
2019-02-06T09:30:27.308Z,19.50
2019-02-06T09:32:56.912Z,19.03
2019-02-06T09:35:25.817Z,18.27
2019-02-06T09:37:54.389Z,18.20
2019-02-06T09:40:25.387Z,17.57
2019-02-06T09:42:54.217Z,18.57
2019-02-06T09:45:23.146Z,16.60
2019-02-06T09:47:51.860Z,18.23
2019-02-06T09:50:32.664Z,18.23
2019-02-06T09:53:01.304Z,18.13
2019-02-06T09:55:30.346Z,17.40
2019-02-06T09:57:59.091Z,18.10
2019-02-06T10:00:30.706Z,18.33
2019-02-06T10:02:59.406Z,17.83
2019-02-06T10:05:28.338Z,18.53
2019-02-06T10:07:57.061Z,18.50
2019-02-06T10:10:27.106Z,17.67
2019-02-06T10:12:55.812Z,17.63
2019-02-06T10:15:36.340Z,16.70
2019-02-06T10:18:06.149Z,16.80
2019-02-06T10:20:40.331Z,16.30
2019-02-06T10:23:09.244Z,14.70
2019-02-06T10:25:38.197Z,13.87
2019-02-06T10:28:06.829Z,14.17
2019-02-06T10:30:46.917Z,12.57
2019-02-06T10:33:18.507Z,12.60
2019-02-06T10:35:45.778Z,12.40
2019-02-06T10:38:14.598Z,10.40
2019-02-06T10:40:43.253Z,11.30
2019-02-06T10:43:11.830Z,11.93
2019-02-06T10:45:40.776Z,12.07
2019-02-06T10:48:09.715Z,12.70
2019-02-06T10:50:44.012Z,12.37
2019-02-06T10:53:12.741Z,12.53
2019-02-06T10:55:41.485Z,12.63
2019-02-06T10:58:10.086Z,12.70
2019-02-06T11:00:42.612Z,13.33
2019-02-06T11:03:11.254Z,12.90
2019-02-06T11:05:39.999Z,12.83
2019-02-06T11:08:08.833Z,13.00
2019-02-06T11:10:37.396Z,12.83
2019-02-06T11:13:06.610Z,12.60
2019-02-06T11:15:35.635Z,12.53
2019-02-06T11:18:05.250Z,12.07
2019-02-06T11:20:37.030Z,12.33
2019-02-06T11:23:06.862Z,11.15
2019-02-06T11:25:35.805Z,11.53
2019-02-06T11:28:05.047Z,12.05
2019-02-06T11:30:36.662Z,11.68
2019-02-06T11:33:06.602Z,10.40
2019-02-06T11:35:35.321Z,11.50
2019-02-06T11:38:04.859Z,11.60
2019-02-06T11:40:33.482Z,11.30
2019-02-06T11:43:02.227Z,11.50
2019-02-06T11:45:34.810Z,11.40
2019-02-06T11:48:03.850Z,11.73
2019-02-06T11:50:34.219Z,12.03
2019-02-06T11:53:02.826Z,12.53
2019-02-06T11:55:32.344Z,12.55
2019-02-06T11:58:01.192Z,12.07
2019-02-06T12:00:37.256Z,11.93
2019-02-06T12:03:06.167Z,12.05
2019-02-06T12:05:34.775Z,12.78
2019-02-06T12:08:03.706Z,12.15
2019-02-06T12:10:32.418Z,12.07
2019-02-06T12:13:01.258Z,11.88
2019-02-06T12:15:29.898Z,12.25
2019-02-06T12:17:58.498Z,12.07
2019-02-06T12:20:27.207Z,12.55
2019-02-06T12:22:55.814Z,11.00
2019-02-06T12:25:24.466Z,12.43
2019-02-06T12:27:55.603Z,12.10
2019-02-06T12:30:27.381Z,12.03
2019-02-06T12:32:56.056Z,12.30
2019-02-06T12:35:24.695Z,11.65
2019-02-06T12:37:53.398Z,11.95
2019-02-06T12:40:23.117Z,11.68
2019-02-06T12:42:51.888Z,12.25
2019-02-06T12:45:22.392Z,12.65
2019-02-06T12:47:51.524Z,12.43
2019-02-06T12:50:21.835Z,13.05
2019-02-06T12:52:50.498Z,12.68
2019-02-06T12:55:25.001Z,12.75
2019-02-06T12:57:53.725Z,13.30
2019-02-06T13:00:27.710Z,13.03
2019-02-06T13:02:59.853Z,13.45
2019-02-06T13:05:27.230Z,12.90
2019-02-06T13:07:55.970Z,13.48
2019-02-06T13:10:33.268Z,13.25
2019-02-06T13:12:55.393Z,12.88
2019-02-06T13:15:24.172Z,13.35
2019-02-06T13:17:53.286Z,13.60
2019-02-06T13:20:27.233Z,13.18
2019-02-06T13:22:56.080Z,13.65
2019-02-06T13:25:24.988Z,14.10
2019-02-06T13:27:53.653Z,13.78
2019-02-06T13:30:28.078Z,14.23
2019-02-06T13:32:56.850Z,13.88
2019-02-06T13:35:25.692Z,13.95
2019-02-06T13:37:54.458Z,14.25
2019-02-06T13:40:28.047Z,14.45
2019-02-06T13:42:57.782Z,14.75
2019-02-06T13:45:41.247Z,15.13
2019-02-06T13:48:09.937Z,15.63
2019-02-06T13:50:38.755Z,16.23
2019-02-06T13:53:07.563Z,15.65
2019-02-06T13:55:36.278Z,16.02
2019-02-06T13:58:05.916Z,15.58
2019-02-06T14:00:36.896Z,16.42
2019-02-06T14:03:06.847Z,15.88
2019-02-06T14:05:36.320Z,15.63
2019-02-06T14:08:07.764Z,15.28
2019-02-06T14:10:36.511Z,15.48
2019-02-06T14:13:06.240Z,14.60
2019-02-06T14:15:46.777Z,15.15
2019-02-06T14:18:15.571Z,14.70
2019-02-06T14:20:45.686Z,14.85
2019-02-06T14:23:26.428Z,14.00
2019-02-06T14:26:14.238Z,13.43
2019-02-06T14:29:12.890Z,14.18
2019-02-06T14:32:00.805Z,14.25
2019-02-06T14:34:44.216Z,13.40
2019-02-06T14:37:27.900Z,13.20
2019-02-06T14:39:59.582Z,12.78
2019-02-06T14:42:31.268Z,12.53
2019-02-06T14:45:20.923Z,12.87
2019-02-06T14:47:52.605Z,12.47
2019-02-06T14:50:43.942Z,12.07
2019-02-06T14:53:30.784Z,12.40
2019-02-06T14:56:14.482Z,11.50
2019-02-06T14:58:58.166Z,10.97
2019-02-06T15:01:46.246Z,10.87
2019-02-06T15:04:45.164Z,11.30
2019-02-06T15:07:38.062Z,10.73
2019-02-06T15:10:37.138Z,11.30
2019-02-06T15:13:31.429Z,10.57
2019-02-06T15:16:15.248Z,10.90
2019-02-06T15:18:49.498Z,10.47
2019-02-06T15:21:24.091Z,10.30
2019-02-06T15:24:15.111Z,9.87
2019-02-06T15:26:49.430Z,9.47
2019-02-06T15:29:21.150Z,9.93
2019-02-06T15:32:09.637Z,8.97
2019-02-06T15:34:41.378Z,9.80
2019-02-06T15:37:24.636Z,8.17
2019-02-06T15:40:13.095Z,8.90
2019-02-06T15:42:53.606Z,9.47
2019-02-06T15:45:43.123Z,9.10
2019-02-06T15:48:23.867Z,8.77
2019-02-06T15:51:12.198Z,8.80
2019-02-06T15:53:49.399Z,8.60
2019-02-06T15:56:37.695Z,9.13
2019-02-06T15:59:09.368Z,9.00
2019-02-06T16:01:49.791Z,8.83
2019-02-06T16:04:56.434Z,8.60
2019-02-06T16:07:34.011Z,8.60
2019-02-06T16:10:26.181Z,8.00
2019-02-06T16:13:29.676Z,8.40
2019-02-06T16:16:31.505Z,8.07
2019-02-06T16:19:12.084Z,8.83
2019-02-06T16:22:06.622Z,8.47
2019-02-06T16:24:53.374Z,7.37
2019-02-06T16:27:34.029Z,8.73
2019-02-06T16:30:25.306Z,7.83
2019-02-06T16:32:59.743Z,8.77
2019-02-06T16:35:31.431Z,8.40
2019-02-06T16:38:19.864Z,8.10
2019-02-06T16:41:18.763Z,8.37
2019-02-06T16:44:08.812Z,8.47
2019-02-06T16:46:55.271Z,8.50
2019-02-06T16:49:46.643Z,8.10
2019-02-06T16:52:20.822Z,8.43
2019-02-06T16:55:09.028Z,8.97
2019-02-06T16:57:43.279Z,8.53
2019-02-06T17:00:23.570Z,8.63
2019-02-06T17:03:03.928Z,7.50
2019-02-06T17:05:38.488Z,8.63
2019-02-06T17:08:16.075Z,9.27
2019-02-06T17:11:22.535Z,8.47
2019-02-06T17:14:10.716Z,8.67
2019-02-06T17:17:00.383Z,8.60
2019-02-06T17:19:40.568Z,8.70
2019-02-06T17:22:14.836Z,8.50
2019-02-06T17:24:49.212Z,8.43
2019-02-06T17:27:51.438Z,7.90
2019-02-06T17:30:32.244Z,8.67
2019-02-06T17:33:33.879Z,8.27
2019-02-06T17:36:14.239Z,8.47
2019-02-06T17:39:03.973Z,8.30
2019-02-06T17:41:56.562Z,8.17
2019-02-06T17:44:28.253Z,8.30
2019-02-06T17:47:02.594Z,8.63
2019-02-06T17:49:49.368Z,9.33
2019-02-06T17:52:32.787Z,8.10
2019-02-06T17:55:17.562Z,8.70
2019-02-06T17:57:47.063Z,7.87
2019-02-06T18:00:21.498Z,9.10
2019-02-06T18:02:50.228Z,8.67
2019-02-06T18:05:18.844Z,8.60
2019-02-06T18:07:47.529Z,8.03
2019-02-06T18:10:20.076Z,8.33
2019-02-06T18:12:48.777Z,8.17
2019-02-06T18:15:17.431Z,8.17
2019-02-06T18:17:46.002Z,8.23
2019-02-06T18:20:18.035Z,8.17
2019-02-06T18:22:46.908Z,9.00
2019-02-06T18:25:16.661Z,8.67
2019-02-06T18:27:47.165Z,8.27
2019-02-06T18:30:21.162Z,8.13
2019-02-06T18:32:49.860Z,7.90
2019-02-06T18:35:18.700Z,8.40
2019-02-06T18:37:51.726Z,7.83
2019-02-06T18:40:23.727Z,8.00
2019-02-06T18:42:52.539Z,8.73
2019-02-06T18:45:22.662Z,8.70
2019-02-06T18:47:54.630Z,8.10
2019-02-06T18:50:31.016Z,8.90
2019-02-06T18:52:59.430Z,8.33
2019-02-06T18:55:28.094Z,8.00
2019-02-06T18:57:57.292Z,8.57
2019-02-06T19:00:32.250Z,7.90
2019-02-06T19:03:03.754Z,9.07
2019-02-06T19:05:35.583Z,8.93
2019-02-06T19:08:04.792Z,8.93
2019-02-06T19:10:33.369Z,9.03
2019-02-06T19:13:02.368Z,9.07
2019-02-06T19:15:31.615Z,8.93
2019-02-06T19:18:00.254Z,9.17
2019-02-06T19:20:28.839Z,8.80
2019-02-06T19:22:57.395Z,8.40
2019-02-06T19:25:26.082Z,9.23
2019-02-06T19:27:56.274Z,8.10
2019-02-06T19:30:42.502Z,8.93
2019-02-06T19:33:11.057Z,8.73
2019-02-06T19:35:39.786Z,9.20
2019-02-06T19:38:08.595Z,8.80
2019-02-06T19:40:37.351Z,9.50
2019-02-06T19:43:06.254Z,8.80
2019-02-06T19:45:35.224Z,9.07
2019-02-06T19:48:15.213Z,9.17
2019-02-06T19:50:45.948Z,9.77
2019-02-06T19:53:14.541Z,9.07
2019-02-06T19:55:43.207Z,8.73
2019-02-06T19:58:12.135Z,8.40
2019-02-06T20:00:40.807Z,9.23
2019-02-06T20:03:09.779Z,9.60
2019-02-06T20:05:38.443Z,9.20
2019-02-06T20:08:09.623Z,9.53
2019-02-06T20:10:50.148Z,9.43
2019-02-06T20:13:18.751Z,9.07
2019-02-06T20:15:47.429Z,9.73
2019-02-06T20:18:16.328Z,9.10
2019-02-06T20:20:45.062Z,8.90
2019-02-06T20:23:13.630Z,9.17
2019-02-06T20:25:42.265Z,9.40
2019-02-06T20:28:10.831Z,9.90
2019-02-06T20:30:39.509Z,10.47
2019-02-06T20:33:08.156Z,9.30
2019-02-06T20:35:37.211Z,9.20
2019-02-06T20:38:05.834Z,9.73
2019-02-06T20:40:40.328Z,10.20
2019-02-06T20:43:08.909Z,10.67
2019-02-06T20:45:37.570Z,9.67
2019-02-06T20:48:06.286Z,10.33
2019-02-06T20:50:36.098Z,10.20
2019-02-06T20:53:05.310Z,9.93
2019-02-06T20:55:34.100Z,10.23
2019-02-06T20:58:02.963Z,10.00
2019-02-06T21:00:37.178Z,9.73
2019-02-06T21:03:06.377Z,9.90
2019-02-06T21:05:35.308Z,9.90
2019-02-06T21:08:04.811Z,10.43
2019-02-06T21:10:35.243Z,9.73
2019-02-06T21:13:03.980Z,10.23
2019-02-06T21:15:33.079Z,9.90
2019-02-06T21:18:01.703Z,10.50
2019-02-06T21:20:30.299Z,10.43
2019-02-06T21:22:59.326Z,10.13
2019-02-06T21:25:27.928Z,11.17
2019-02-06T21:27:56.494Z,10.83
2019-02-06T21:30:33.782Z,10.20
2019-02-06T21:33:02.416Z,10.83
2019-02-06T21:35:31.007Z,10.70
2019-02-06T21:37:59.965Z,10.47
2019-02-06T21:40:31.279Z,11.40
2019-02-06T21:42:59.925Z,11.30
2019-02-06T21:45:28.752Z,10.33
2019-02-06T21:47:57.329Z,10.63
2019-02-06T21:50:26.263Z,10.13
2019-02-06T21:52:55.209Z,10.50
2019-02-06T21:55:25.251Z,10.93
2019-02-06T21:57:53.824Z,10.37
2019-02-06T22:00:27.687Z,11.00
2019-02-06T22:02:56.317Z,10.23
2019-02-06T22:05:26.199Z,10.83
2019-02-06T22:07:54.767Z,10.67
2019-02-06T22:10:23.795Z,9.80
2019-02-06T22:12:52.502Z,11.43
2019-02-06T22:15:26.712Z,11.43
2019-02-06T22:17:55.428Z,10.73
2019-02-06T22:20:24.566Z,10.37
2019-02-06T22:22:53.371Z,10.87
2019-02-06T22:25:22.211Z,11.53
2019-02-06T22:27:50.945Z,11.30
2019-02-06T22:30:30.383Z,10.57
2019-02-06T22:32:59.025Z,10.77
2019-02-06T22:35:27.853Z,10.77
2019-02-06T22:37:56.662Z,11.03
2019-02-06T22:40:26.203Z,10.67
2019-02-06T22:42:55.003Z,10.93
2019-02-06T22:45:27.936Z,11.10
2019-02-06T22:47:56.499Z,10.73
2019-02-06T22:50:27.347Z,11.57
2019-02-06T22:52:56.057Z,11.73
2019-02-06T22:55:24.787Z,11.23
2019-02-06T22:57:53.423Z,11.73
2019-02-06T23:00:51.208Z,11.50
2019-02-06T23:03:25.611Z,11.80
2019-02-06T23:05:54.298Z,11.73
2019-02-06T23:08:22.833Z,11.70
2019-02-06T23:10:51.514Z,11.23
2019-02-06T23:13:20.367Z,12.23
2019-02-06T23:15:49.099Z,12.00
2019-02-06T23:18:18.007Z,12.17
2019-02-06T23:20:46.613Z,12.10
2019-02-06T23:23:15.193Z,12.47
2019-02-06T23:25:43.864Z,11.97
2019-02-06T23:28:12.990Z,12.33
2019-02-06T23:30:41.651Z,11.87
2019-02-06T23:33:10.290Z,12.53
2019-02-06T23:35:38.974Z,11.57
2019-02-06T23:38:07.603Z,12.53
2019-02-06T23:40:36.199Z,12.20
2019-02-06T23:43:05.300Z,11.90
2019-02-06T23:45:33.905Z,11.97
2019-02-06T23:48:02.471Z,13.20
2019-02-06T23:50:31.075Z,12.47
2019-02-06T23:52:59.640Z,12.20
2019-02-06T23:55:28.231Z,12.40
2019-02-06T23:57:56.899Z,11.73
